Time;durP1;ratioP1;P1;durP2;ratioP2;P2;SDS_P1;SDS_P2;PMS_P1;PMS_P2;Temp;Humidity;BMP_temperature;BMP_pressure;BME280_temperature;BME280_humidity;BME280_pressure;Samples;Min_cycle;Max_cycle;Signal;HPM_P1;HPM_P2
2022/05/18 00:00:07;;;;;;;4.65;3.28;;;12.90;99.90;;;;;;5078064;28;20036;-80
2022/05/18 00:02:33;;;;;;;4.63;2.80;;;12.80;99.90;;;;;;5077696;28;20106;-80
2022/05/18 00:04:59;;;;;;;3.75;3.00;;;12.70;99.90;;;;;;5079258;28;20025;-81
2022/05/18 00:07:25;;;;;;;6.47;3.17;;;12.70;99.90;;;;;;5074386;28;20044;-81
2022/05/18 00:09:51;;;;;;;8.75;2.90;;;12.70;99.90;;;;;;5074812;28;20469;-81
2022/05/18 00:12:17;;;;;;;6.32;3.10;;;12.70;99.90;;;;;;5073556;28;20029;-81
2022/05/18 00:14:44;;;;;;;5.30;3.40;;;12.70;99.90;;;;;;5074498;28;20384;-81
2022/05/18 00:17:10;;;;;;;8.70;2.95;;;12.80;99.90;;;;;;5075465;28;20103;-82
2022/05/18 00:19:35;;;;;;;5.00;2.80;;;12.80;99.90;;;;;;5075445;28;20075;-81
2022/05/18 00:22:02;;;;;;;3.47;2.88;;;12.80;99.90;;;;;;5075338;28;20020;-82
2022/05/18 00:24:27;;;;;;;4.85;3.05;;;12.70;99.90;;;;;;5074600;28;20021;-82
2022/05/18 00:26:53;;;;;;;5.70;3.38;;;12.70;99.90;;;;;;5074292;28;20040;-81
2022/05/18 00:29:19;;;;;;;4.40;3.17;;;12.60;99.90;;;;;;5074635;28;20396;-81
2022/05/18 00:31:46;;;;;;;4.95;3.33;;;12.50;99.90;;;;;;5075860;28;20166;-82
2022/05/18 00:34:13;;;;;;;5.35;3.35;;;12.40;99.90;;;;;;5075793;28;20463;-82
2022/05/18 00:36:39;;;;;;;6.18;3.13;;;12.30;99.90;;;;;;5075643;28;20086;-82
2022/05/18 00:39:05;;;;;;;4.10;3.33;;;12.30;99.90;;;;;;5074480;28;20028;-82
2022/05/18 00:41:32;;;;;;;5.20;3.25;;;12.20;99.90;;;;;;5076081;28;20048;-82
2022/05/18 00:43:58;;;;;;;5.88;3.47;;;12.20;99.90;;;;;;5075120;28;20074;-82
2022/05/18 00:46:24;;;;;;;6.10;3.05;;;12.30;99.90;;;;;;5076175;28;20104;-82
2022/05/18 00:48:51;;;;;;;4.22;3.28;;;12.20;99.90;;;;;;5076047;28;20039;-82
2022/05/18 00:51:21;;;;;;;5.68;3.25;;;12.30;99.90;;;;;;5075857;28;20025;-82
2022/05/18 00:53:52;;;;;;;7.07;2.97;;;12.30;99.90;;;;;;5073513;28;20036;-81
2022/05/18 00:56:26;;;;;;;3.88;3.10;;;12.30;99.90;;;;;;5053928;28;20101;-82
2022/05/18 00:59:00;;;;;;;4.70;3.53;;;12.30;99.90;;;;;;5055479;28;20029;-82
2022/05/18 01:01:26;;;;;;;4.25;2.83;;;12.30;99.90;;;;;;5054688;28;20025;-81
2022/05/18 01:03:54;;;;;;;4.68;3.20;;;12.20;99.90;;;;;;5061904;28;20059;-81
2022/05/18 01:06:23;;;;;;;9.93;3.40;;;12.30;99.90;;;;;;5054592;28;20126;-82
2022/05/18 01:09:11;;;;;;;4.07;2.95;;;12.20;99.90;;;;;;5054945;28;20107;-81
2022/05/18 01:11:39;;;;;;;4.32;3.05;;;12.20;99.90;;;;;;5060928;28;20009;-81
2022/05/18 01:14:12;;;;;;;5.93;3.13;;;12.20;99.90;;;;;;5074085;28;20020;-81
2022/05/18 01:16:38;;;;;;;6.13;3.30;;;12.20;99.90;;;;;;5073609;28;20017;-81
2022/05/18 01:19:07;;;;;;;5.78;3.30;;;12.20;99.90;;;;;;5073985;28;20040;-81
2022/05/18 01:21:41;;;;;;;6.25;3.25;;;12.10;99.90;;;;;;5073908;28;20024;-81
2022/05/18 01:24:23;;;;;;;5.22;2.97;;;12.10;99.90;;;;;;5074070;28;20056;-81
2022/05/18 01:26:50;;;;;;;7.32;3.30;;;12.10;99.90;;;;;;5072488;28;20021;-82
2022/05/18 01:29:19;;;;;;;3.75;2.85;;;12.10;99.90;;;;;;5072809;28;20035;-82
2022/05/18 01:32:04;;;;;;;4.40;3.00;;;12.10;99.90;;;;;;5072365;28;20032;-81
2022/05/18 01:34:34;;;;;;;4.25;3.17;;;12.10;99.90;;;;;;5072462;28;20387;-81
2022/05/18 01:37:00;;;;;;;5.07;2.95;;;12.10;99.90;;;;;;5062949;28;20031;-81
2022/05/18 01:39:44;;;;;;;5.32;3.08;;;12.10;99.90;;;;;;5075064;28;20028;-82
2022/05/18 01:42:25;;;;;;;7.90;5.00;;;12.00;99.90;;;;;;5074792;28;20439;-82
2022/05/18 01:44:50;;;;;;;10.90;5.82;;;11.90;99.90;;;;;;5076172;28;20070;-81
2022/05/18 01:47:16;;;;;;;10.85;6.05;;;11.90;99.90;;;;;;5076585;28;20024;-82
2022/05/18 01:49:43;;;;;;;13.57;6.50;;;11.90;99.90;;;;;;5076021;28;20028;-80
2022/05/18 01:52:10;;;;;;;16.45;7.95;;;11.90;99.90;;;;;;5061035;28;20029;-82
2022/05/18 01:54:41;;;;;;;14.93;8.23;;;11.90;99.90;;;;;;5075905;28;20036;-81
2022/05/18 01:57:07;;;;;;;15.68;8.88;;;11.90;99.90;;;;;;5080495;28;20036;-82
2022/05/18 01:59:34;;;;;;;14.75;8.60;;;11.90;99.90;;;;;;5080499;28;20480;-82
2022/05/18 02:01:59;;;;;;;14.98;10.30;;;11.90;99.90;;;;;;5080855;28;20029;-82
2022/05/18 02:04:25;;;;;;;24.77;12.93;;;11.80;99.90;;;;;;5079555;28;20024;-82
2022/05/18 02:06:51;;;;;;;18.60;9.88;;;11.80;99.90;;;;;;5079835;28;20372;-82
2022/05/18 02:09:19;;;;;;;13.02;6.35;;;11.80;99.90;;;;;;5079337;28;20028;-82
2022/05/18 02:11:45;;;;;;;7.57;4.32;;;11.70;99.90;;;;;;5079308;28;20047;-81
2022/05/18 02:14:11;;;;;;;5.90;3.63;;;11.70;99.90;;;;;;5079582;28;20031;-81
2022/05/18 02:16:38;;;;;;;6.05;3.92;;;11.60;99.90;;;;;;5079424;28;20487;-81
2022/05/18 02:19:04;;;;;;;6.32;3.88;;;11.50;99.90;;;;;;5079625;28;20086;-81
2022/05/18 02:21:30;;;;;;;10.90;6.00;;;11.50;99.90;;;;;;5078139;28;20028;-81
2022/05/18 02:23:55;;;;;;;13.05;6.30;;;11.50;99.90;;;;;;5078670;28;20023;-81
2022/05/18 02:26:21;;;;;;;9.07;5.70;;;11.40;99.90;;;;;;5078239;28;20017;-81
2022/05/18 02:28:47;;;;;;;7.43;4.35;;;11.40;99.90;;;;;;5079267;28;20028;-81
2022/05/18 02:31:14;;;;;;;7.00;4.40;;;11.40;99.90;;;;;;5078425;28;20400;-81
2022/05/18 02:33:41;;;;;;;8.95;4.45;;;11.40;99.90;;;;;;5078273;28;20518;-82
2022/05/18 02:36:08;;;;;;;6.72;4.38;;;11.30;99.90;;;;;;5077826;28;20499;-81
2022/05/18 02:38:35;;;;;;;5.53;3.78;;;11.30;99.90;;;;;;5080290;28;20060;-81
2022/05/18 02:41:01;;;;;;;5.72;3.80;;;11.40;99.90;;;;;;5080040;28;20027;-82
2022/05/18 02:43:27;;;;;;;6.82;3.50;;;11.40;99.90;;;;;;5077418;28;20411;-82
2022/05/18 02:46:04;;;;;;;5.28;3.50;;;11.30;99.90;;;;;;5079205;28;20468;-82
2022/05/18 02:48:30;;;;;;;5.28;3.33;;;11.30;99.90;;;;;;5080282;28;20020;-82
2022/05/18 02:50:56;;;;;;;5.55;3.47;;;11.20;99.90;;;;;;5078744;28;20032;-82
2022/05/18 02:53:22;;;;;;;5.22;3.45;;;11.20;99.90;;;;;;5079023;28;20074;-82
2022/05/18 02:56:06;;;;;;;5.18;3.50;;;11.20;99.90;;;;;;5078830;28;20039;-81
2022/05/18 02:58:43;;;;;;;7.20;3.70;;;11.20;99.90;;;;;;5079635;28;20063;-82
2022/05/18 03:01:24;;;;;;;4.10;3.40;;;11.20;99.90;;;;;;5079515;28;20428;-82
2022/05/18 03:03:51;;;;;;;5.72;3.35;;;11.20;99.90;;;;;;5077984;28;20033;-82
2022/05/18 03:06:21;;;;;;;7.85;3.72;;;11.20;99.90;;;;;;5076643;28;20024;-82
2022/05/18 03:08:48;;;;;;;5.70;3.55;;;11.10;99.90;;;;;;5076446;28;20024;-82
2022/05/18 03:11:14;;;;;;;5.18;3.40;;;11.10;99.90;;;;;;5074595;28;20047;-82
2022/05/18 03:13:40;;;;;;;6.30;3.33;;;11.10;99.90;;;;;;5076274;28;20060;-82
2022/05/18 03:16:06;;;;;;;5.22;3.20;;;11.00;99.90;;;;;;5077279;28;20025;-82
2022/05/18 03:18:32;;;;;;;8.35;5.20;;;11.00;99.90;;;;;;5079785;28;20085;-83
2022/05/18 03:23:44;;;;;;;8.55;5.85;;;11.00;99.90;;;;;;5079333;28;20032;-82
2022/05/18 03:26:18;;;;;;;7.45;5.53;;;11.00;99.90;;;;;;5079840;28;20435;-81
2022/05/18 03:28:46;;;;;;;6.82;4.55;;;11.00;99.90;;;;;;5079323;28;20033;-82
2022/05/18 03:31:13;;;;;;;5.85;3.67;;;11.00;99.90;;;;;;5079262;28;20107;-82
2022/05/18 03:33:39;;;;;;;5.03;3.72;;;11.00;99.90;;;;;;5077024;28;20031;-80
2022/05/18 03:36:12;;;;;;;5.88;3.80;;;10.90;99.90;;;;;;5078462;28;20024;-80
2022/05/18 03:38:39;;;;;;;4.57;3.50;;;10.90;99.90;;;;;;5079279;28;20432;-80
2022/05/18 03:41:05;;;;;;;4.40;3.03;;;10.90;99.90;;;;;;5080381;28;20073;-80
2022/05/18 03:43:31;;;;;;;4.93;2.72;;;10.90;99.90;;;;;;5079250;28;20021;-80
2022/05/18 03:46:00;;;;;;;4.07;2.90;;;10.80;99.90;;;;;;5077708;28;20044;-80
2022/05/18 03:48:27;;;;;;;4.53;3.15;;;10.80;99.90;;;;;;5077074;28;20040;-80
2022/05/18 03:50:54;;;;;;;6.15;3.17;;;10.80;99.90;;;;;;5077640;28;20021;-80
2022/05/18 03:53:20;;;;;;;5.13;3.15;;;10.70;99.90;;;;;;5078944;28;20040;-80
2022/05/18 03:55:46;;;;;;;4.85;2.90;;;10.70;99.90;;;;;;5077934;28;20483;-81
2022/05/18 03:58:13;;;;;;;4.97;3.20;;;10.50;99.90;;;;;;5077903;28;20029;-80
2022/05/18 04:00:40;;;;;;;4.05;2.95;;;10.50;99.90;;;;;;5078788;28;20461;-81
2022/05/18 04:03:07;;;;;;;5.97;3.25;;;10.50;99.90;;;;;;5078660;28;20508;-80
2022/05/18 04:05:33;;;;;;;6.57;2.92;;;10.40;99.90;;;;;;5077859;28;20024;-80
2022/05/18 04:08:00;;;;;;;4.43;3.33;;;10.40;99.90;;;;;;5078315;28;20034;-80
2022/05/18 04:10:26;;;;;;;4.13;3.17;;;10.40;99.90;;;;;;5078560;28;20069;-80
2022/05/18 04:12:52;;;;;;;4.43;3.55;;;10.50;99.90;;;;;;5078160;28;20020;-80
2022/05/18 04:15:18;;;;;;;6.22;3.35;;;10.50;99.90;;;;;;5076670;28;20027;-80
2022/05/18 04:17:45;;;;;;;4.50;2.92;;;10.50;99.90;;;;;;5078146;28;20055;-80
2022/05/18 04:20:17;;;;;;;5.00;3.35;;;10.50;99.90;;;;;;5076856;28;20024;-81
2022/05/18 04:22:43;;;;;;;6.20;3.03;;;10.50;99.90;;;;;;5077596;28;20392;-79
2022/05/18 04:25:11;;;;;;;4.57;3.00;;;10.50;99.90;;;;;;5077865;28;20020;-81
2022/05/18 04:27:36;;;;;;;5.75;3.20;;;10.50;99.90;;;;;;5078348;28;20365;-81
2022/05/18 04:30:04;;;;;;;4.78;3.17;;;10.50;99.90;;;;;;5076210;28;20081;-80
2022/05/18 04:32:30;;;;;;;5.18;3.50;;;10.50;99.90;;;;;;5077778;28;20031;-81
2022/05/18 04:34:55;;;;;;;4.47;3.42;;;10.50;99.90;;;;;;5077296;28;20029;-80
2022/05/18 04:37:21;;;;;;;5.90;3.90;;;10.50;99.90;;;;;;5077283;28;20358;-80
2022/05/18 04:39:47;;;;;;;7.97;4.25;;;10.60;99.90;;;;;;5075875;28;20060;-80
2022/05/18 04:42:14;;;;;;;5.97;3.92;;;10.60;99.90;;;;;;5074910;28;20028;-80
2022/05/18 04:44:40;;;;;;;5.97;4.03;;;10.60;99.90;;;;;;5074814;28;20043;-80
2022/05/18 04:47:05;;;;;;;6.75;4.03;;;10.60;99.90;;;;;;5075241;28;20110;-80
2022/05/18 04:49:32;;;;;;;6.32;4.45;;;10.60;99.90;;;;;;5074625;28;20032;-80
2022/05/18 04:51:59;;;;;;;7.55;4.43;;;10.60;99.90;;;;;;5072790;28;20028;-78
2022/05/18 04:54:25;;;;;;;5.45;4.38;;;10.60;99.90;;;;;;5073776;28;20400;-78
2022/05/18 04:56:50;;;;;;;6.65;4.00;;;10.70;99.90;;;;;;5072598;28;20029;-78
2022/05/18 04:59:16;;;;;;;5.22;3.70;;;10.70;99.90;;;;;;5072625;28;20025;-78
2022/05/18 05:01:43;;;;;;;5.35;3.70;;;10.70;99.90;;;;;;5073864;28;20096;-78
2022/05/18 05:04:09;;;;;;;6.40;4.30;;;10.80;99.90;;;;;;5072689;28;20040;-78
2022/05/18 05:06:43;;;;;;;5.25;3.83;;;10.80;99.90;;;;;;5074599;28;20118;-78
2022/05/18 05:09:09;;;;;;;7.13;3.92;;;10.90;99.90;;;;;;5074157;28;20082;-78
2022/05/18 05:11:35;;;;;;;7.80;4.57;;;10.90;99.90;;;;;;5074054;28;20024;-78
2022/05/18 05:14:00;;;;;;;5.75;4.03;;;11.00;99.90;;;;;;5073874;28;20031;-78
2022/05/18 05:16:28;;;;;;;7.13;4.55;;;11.00;99.90;;;;;;5072495;28;20032;-79
2022/05/18 05:18:54;;;;;;;7.78;4.80;;;11.00;99.90;;;;;;5073871;28;20193;-79
2022/05/18 05:21:20;;;;;;;11.75;6.38;;;11.10;99.90;;;;;;5074178;28;20035;-79
2022/05/18 05:23:46;;;;;;;7.88;5.50;;;11.10;99.90;;;;;;5073807;28;20022;-79
2022/05/18 05:26:13;;;;;;;8.75;5.78;;;11.10;99.90;;;;;;5079568;28;20487;-79
2022/05/18 05:28:40;;;;;;;9.38;5.55;;;11.10;99.90;;;;;;5081000;28;20036;-78
2022/05/18 05:31:08;;;;;;;10.27;6.15;;;11.20;99.90;;;;;;5079123;28;20036;-78
2022/05/18 05:33:35;;;;;;;11.25;6.38;;;11.20;99.90;;;;;;5080525;28;20024;-79
2022/05/18 05:36:02;;;;;;;9.25;6.50;;;11.30;99.90;;;;;;5080458;28;20074;-79
2022/05/18 05:38:28;;;;;;;13.48;7.50;;;11.30;99.90;;;;;;5079169;28;20047;-79
2022/05/18 05:40:55;;;;;;;8.68;6.75;;;11.40;99.90;;;;;;5080823;28;20025;-79
2022/05/18 05:43:21;;;;;;;9.35;6.13;;;11.40;99.90;;;;;;5080185;28;20023;-79
2022/05/18 05:46:05;;;;;;;9.27;6.43;;;11.50;99.90;;;;;;5079363;28;20078;-79
2022/05/18 05:48:32;;;;;;;7.45;5.88;;;11.60;99.90;;;;;;5081161;28;20024;-79
2022/05/18 05:51:00;;;;;;;10.25;6.90;;;11.60;99.90;;;;;;5080433;28;20407;-79
2022/05/18 05:53:26;;;;;;;10.45;7.05;;;11.70;99.90;;;;;;5079103;28;20035;-79
2022/05/18 05:55:53;;;;;;;11.50;7.63;;;11.80;99.90;;;;;;5080816;28;20032;-80
2022/05/18 05:58:21;;;;;;;8.77;6.40;;;11.90;99.90;;;;;;5079550;28;20031;-81
2022/05/18 06:00:47;;;;;;;10.57;7.65;;;12.00;99.90;;;;;;5079225;28;20025;-81
2022/05/18 06:03:17;;;;;;;14.65;9.50;;;12.10;99.90;;;;;;5080116;28;20024;-81
2022/05/18 06:05:43;;;;;;;12.90;8.38;;;12.20;99.90;;;;;;5102042;22;20126;-73
2022/05/18 06:08:09;;;;;;;10.95;7.40;;;12.30;99.90;;;;;;5100099;28;20459;-71
2022/05/18 06:10:35;;;;;;;11.93;7.50;;;12.40;99.90;;;;;;5100309;28;20413;-71
2022/05/18 06:13:10;;;;;;;13.20;6.78;;;12.50;99.90;;;;;;5099990;28;20020;-71
2022/05/18 06:15:36;;;;;;;10.18;6.97;;;12.50;99.90;;;;;;5079441;28;20047;-71
2022/05/18 06:18:02;;;;;;;10.68;7.28;;;12.70;99.90;;;;;;5079909;28;20456;-71
2022/05/18 06:20:29;;;;;;;13.18;8.60;;;12.80;99.90;;;;;;5079421;28;20020;-70
2022/05/18 06:22:55;;;;;;;13.90;9.10;;;12.90;99.90;;;;;;5061498;28;20021;-72
2022/05/18 06:25:20;;;;;;;13.20;8.90;;;12.90;99.90;;;;;;5061366;28;20037;-72
2022/05/18 06:27:46;;;;;;;13.50;9.57;;;13.00;99.90;;;;;;5079402;28;20024;-72
2022/05/18 06:30:14;;;;;;;10.77;8.43;;;13.10;99.90;;;;;;5079391;28;20099;-72
2022/05/18 06:32:39;;;;;;;16.30;9.55;;;13.20;99.90;;;;;;5079608;28;20025;-72
2022/05/18 06:35:06;;;;;;;12.60;9.80;;;13.30;99.90;;;;;;5079277;28;20085;-72
2022/05/18 06:37:32;;;;;;;13.40;9.55;;;13.50;99.90;;;;;;5075544;28;20534;-72
2022/05/18 06:39:57;;;;;;;17.92;11.85;;;13.60;99.90;;;;;;5076291;28;20028;-71
2022/05/18 06:42:23;;;;;;;16.85;11.07;;;13.70;99.90;;;;;;5076039;28;20074;-72
2022/05/18 06:44:50;;;;;;;14.48;9.85;;;13.70;99.90;;;;;;5076184;28;20523;-72
2022/05/18 06:47:17;;;;;;;15.13;10.10;;;13.80;99.90;;;;;;5076268;28;20120;-72
2022/05/18 06:49:43;;;;;;;16.70;11.05;;;13.90;99.90;;;;;;5075905;28;20032;-72
2022/05/18 06:52:11;;;;;;;14.20;10.63;;;14.00;99.90;;;;;;5057980;28;20036;-72
2022/05/18 06:54:37;;;;;;;14.75;10.32;;;14.20;99.90;;;;;;5075863;28;20445;-72
2022/05/18 06:57:04;;;;;;;14.98;11.57;;;14.30;99.90;;;;;;5057832;28;20060;-72
2022/05/18 06:59:30;;;;;;;14.50;11.23;;;14.50;99.90;;;;;;5075714;28;20024;-72
2022/05/18 07:01:55;;;;;;;14.52;11.45;;;14.70;99.90;;;;;;5075675;28;20071;-73
2022/05/18 07:04:21;;;;;;;17.63;11.32;;;14.80;99.90;;;;;;5057608;28;20065;-74
2022/05/18 07:06:47;;;;;;;16.15;12.27;;;15.00;99.90;;;;;;5075842;28;20395;-74
2022/05/18 07:09:16;;;;;;;14.68;10.27;;;15.20;99.90;;;;;;5075657;28;20025;-74
2022/05/18 07:11:43;;;;;;;17.95;10.85;;;15.40;99.90;;;;;;5075593;28;20028;-71
2022/05/18 07:14:09;;;;;;;14.48;11.00;;;15.60;99.90;;;;;;5075415;28;20067;-72
2022/05/18 07:16:35;;;;;;;15.10;11.02;;;15.70;99.90;;;;;;5075424;28;20060;-72
2022/05/18 07:19:01;;;;;;;14.48;10.68;;;15.90;99.90;;;;;;5075311;28;20029;-72
2022/05/18 07:21:27;;;;;;;12.30;9.85;;;16.10;99.90;;;;;;5075669;28;20488;-70
2022/05/18 07:23:54;;;;;;;12.45;9.90;;;16.20;99.90;;;;;;5075218;28;20056;-74
2022/05/18 07:26:21;;;;;;;13.30;8.27;;;16.40;99.90;;;;;;5075437;28;20020;-74
2022/05/18 07:28:48;;;;;;;11.32;8.18;;;16.50;99.90;;;;;;5075174;28;20437;-73
2022/05/18 07:31:15;;;;;;;13.25;7.30;;;16.70;99.90;;;;;;5075443;28;20104;-73
2022/05/18 07:33:41;;;;;;;11.15;7.53;;;16.80;99.90;;;;;;5074993;28;20035;-74
2022/05/18 07:36:07;;;;;;;8.80;5.78;;;16.90;99.90;;;;;;5075722;28;20056;-75
2022/05/18 07:38:34;;;;;;;7.60;5.60;;;17.10;99.90;;;;;;5074948;28;20055;-75
2022/05/18 07:41:01;;;;;;;6.97;4.93;;;17.20;99.90;;;;;;5075060;28;20031;-74
2022/05/18 07:43:27;;;;;;;7.97;4.78;;;17.30;99.90;;;;;;5074894;28;20024;-74
2022/05/18 07:45:54;;;;;;;8.48;4.80;;;17.40;99.90;;;;;;5075210;28;20025;-73
2022/05/18 07:48:21;;;;;;;7.57;4.43;;;17.60;99.90;;;;;;5074502;28;20499;-74
2022/05/18 07:50:47;;;;;;;6.82;4.10;;;17.80;99.90;;;;;;5075118;28;20035;-74
2022/05/18 07:53:13;;;;;;;8.10;4.40;;;17.90;99.90;;;;;;5074696;28;20473;-74
2022/05/18 07:55:38;;;;;;;6.25;3.90;;;18.10;99.90;;;;;;5056863;28;20029;-73
2022/05/18 07:58:11;;;;;;;9.45;3.90;;;18.20;99.90;;;;;;5074828;28;20023;-74
2022/05/18 08:00:37;;;;;;;6.10;3.72;;;18.40;99.90;;;;;;5074974;28;20024;-74
2022/05/18 08:03:03;;;;;;;5.72;4.32;;;18.60;99.40;;;;;;5056606;28;20025;-71
2022/05/18 08:05:30;;;;;;;7.88;3.75;;;18.70;99.90;;;;;;5074256;28;20021;-71
2022/05/18 08:08:03;;;;;;;5.45;4.15;;;18.80;98.70;;;;;;5074738;28;20021;-72
2022/05/18 08:15:57;;;;;;;5.75;3.70;;;19.20;99.40;;;;;;5074600;28;20022;-71
2022/05/18 08:18:22;;;;;;;5.00;3.60;;;19.30;98.50;;;;;;5074096;28;20025;-71
2022/05/18 08:20:49;;;;;;;5.55;3.65;;;19.50;98.30;;;;;;5074239;28;20024;-72
2022/05/18 08:23:15;;;;;;;8.85;4.40;;;19.60;98.20;;;;;;5056195;28;20024;-72
2022/05/18 08:25:43;;;;;;;6.70;3.88;;;19.80;97.20;;;;;;5074377;28;20027;-72
2022/05/18 08:28:09;;;;;;;7.85;3.88;;;19.80;95.60;;;;;;5074336;28;20023;-71
2022/05/18 08:30:35;;;;;;;6.55;3.67;;;19.90;94.50;;;;;;5074069;28;20017;-71
2022/05/18 08:33:02;;;;;;;7.10;3.75;;;20.00;94.40;;;;;;5074214;28;20020;-70
2022/05/18 08:35:30;;;;;;;5.07;3.55;;;20.20;94.20;;;;;;5073838;28;20033;-71
2022/05/18 08:37:57;;;;;;;6.45;3.40;;;20.30;94.30;;;;;;5074119;28;20020;-71
2022/05/18 08:40:25;;;;;;;6.68;3.50;;;20.50;93.90;;;;;;5073770;28;20047;-71
2022/05/18 08:42:51;;;;;;;5.50;2.83;;;20.70;92.60;;;;;;5055954;28;20024;-71
2022/05/18 08:45:18;;;;;;;6.40;3.15;;;20.80;91.90;;;;;;5055763;28;20046;-71
2022/05/18 08:47:58;;;;;;;5.00;3.20;;;21.00;90.60;;;;;;5055811;28;20029;-71
2022/05/18 08:50:24;;;;;;;6.35;3.00;;;21.10;90.70;;;;;;5073794;28;20574;-71
2022/05/18 08:52:58;;;;;;;4.82;3.17;;;21.30;88.90;;;;;;5073836;28;20041;-71
2022/05/18 08:55:48;;;;;;;5.65;3.15;;;21.30;88.00;;;;;;5073873;28;20017;-71
2022/05/18 08:58:39;;;;;;;4.95;3.58;;;21.50;85.40;;;;;;5073589;28;20039;-71
2022/05/18 09:01:29;;;;;;;6.25;2.90;;;21.60;83.90;;;;;;5073024;28;20388;-71
2022/05/18 09:03:58;;;;;;;7.55;2.83;;;21.80;83.00;;;;;;5073672;28;20020;-71
2022/05/18 09:06:28;;;;;;;4.85;2.38;;;21.80;79.50;;;;;;5073269;28;20033;-70
2022/05/18 09:11:55;;;;;;;7.72;2.80;;;22.10;75.70;;;;;;5073811;28;20534;-71
2022/05/18 09:14:23;;;;;;;4.13;2.60;;;22.10;77.10;;;;;;5073858;28;20036;-71
2022/05/18 09:17:07;;;;;;;3.97;2.60;;;22.20;76.60;;;;;;5073309;28;20029;-71
2022/05/18 09:19:50;;;;;;;3.88;2.22;;;22.30;73.70;;;;;;5055159;28;20400;-71
2022/05/18 09:22:32;;;;;;;5.18;2.20;;;22.40;71.60;;;;;;5073628;28;20133;-71
2022/05/18 09:25:19;;;;;;;3.80;1.90;;;22.60;74.70;;;;;;5073692;28;20455;-71
2022/05/18 09:28:06;;;;;;;3.40;2.00;;;22.80;73.30;;;;;;5073879;28;20025;-71
2022/05/18 09:30:39;;;;;;;4.35;1.90;;;22.90;67.80;;;;;;5055284;28;20021;-71
2022/05/18 09:33:16;;;;;;;4.90;1.85;;;22.90;65.60;;;;;;5055523;28;20403;-71
2022/05/18 09:36:14;;;;;;;4.70;1.70;;;22.90;65.40;;;;;;5073836;28;20028;-71
2022/05/18 09:38:59;;;;;;;5.00;1.90;;;22.90;63.40;;;;;;5069079;28;20063;-70
2022/05/18 09:41:27;;;;;;;;;;;23.00;63.20;;;;;;5071446;28;20220;-71
2022/05/18 09:44:09;;;;;;;6.50;1.90;;;23.10;63.20;;;;;;5072141;28;19904;-69
2022/05/18 09:46:36;;;;;;;3.40;1.60;;;23.30;61.60;;;;;;5071628;28;19989;-69
2022/05/18 09:49:09;;;;;;;;;;;23.40;61.80;;;;;;5072302;28;19911;-69
2022/05/18 09:51:36;;;;;;;;;;;23.60;59.30;;;;;;5072815;28;19911;-69
2022/05/18 09:54:03;;;;;;;;;;;23.90;59.40;;;;;;5072162;28;19904;-70
2022/05/18 09:56:30;;;;;;;;;;;24.20;61.60;;;;;;5072357;28;19908;-70
2022/05/18 09:58:59;;;;;;;;;;;24.30;57.00;;;;;;5072352;28;19958;-69
2022/05/18 10:09:43;;;;;;;;;;;24.50;54.80;;;;;;5072201;28;19997;-69
2022/05/18 10:12:12;;;;;;;;;;;24.40;53.40;;;;;;5075208;28;19912;-70
2022/05/18 10:14:38;;;;;;;;;;;24.50;54.30;;;;;;5076080;28;19904;-69
2022/05/18 10:17:06;;;;;;;;;;;24.60;55.70;;;;;;5076086;28;19958;-69
2022/05/18 10:19:33;;;;;;;;;;;24.70;54.40;;;;;;5076494;28;19912;-70
2022/05/18 10:22:01;;;;;;;;;;;24.90;51.10;;;;;;5076409;28;19904;-69
2022/05/18 10:24:51;;;;;;;2.67;1.20;;;25.10;51.80;;;;;;5092022;28;19909;-70
2022/05/18 10:27:16;;;;;;;2.58;1.35;;;25.30;52.00;;;;;;5076409;28;20028;-70
2022/05/18 10:30:01;;;;;;;;;;;25.50;53.10;;;;;;5075548;28;20017;-69
2022/05/18 10:32:31;;;;;;;;;;;25.60;51.40;;;;;;5076974;28;19904;-69
2022/05/18 10:34:58;;;;;;;;;;;25.70;52.80;;;;;;5057608;28;19908;-68
2022/05/18 10:37:23;;;;;;;;;;;25.70;49.70;;;;;;5076082;28;19911;-70
2022/05/18 10:39:49;;;;;;;2.70;1.40;;;25.70;50.00;;;;;;5076492;28;19909;-70
2022/05/18 10:42:26;;;;;;;4.72;1.50;;;25.80;51.30;;;;;;5076159;28;20025;-70
2022/05/18 10:44:53;;;;;;;3.60;1.20;;;25.80;50.80;;;;;;5076152;28;20021;-69
2022/05/18 10:47:27;;;;;;;2.53;1.20;;;25.80;52.40;;;;;;5076598;28;20380;-68
2022/05/18 10:50:20;;;;;;;3.47;1.30;;;25.80;51.00;;;;;;5076327;28;20020;-69
2022/05/18 10:52:47;;;;;;;2.83;1.27;;;25.70;49.60;;;;;;5076504;28;20138;-69
2022/05/18 10:55:20;;;;;;;4.03;1.30;;;25.70;48.80;;;;;;5057852;28;20051;-69
2022/05/18 10:58:04;;;;;;;2.67;1.42;;;25.50;50.20;;;;;;5076102;28;20485;-69
2022/05/18 11:00:52;;;;;;;4.55;1.25;;;25.50;50.10;;;;;;5076569;28;20067;-69
2022/05/18 11:03:51;;;;;;;6.53;1.42;;;25.60;51.30;;;;;;5076752;28;20371;-69
2022/05/18 11:06:20;;;;;;;3.35;1.25;;;25.70;52.50;;;;;;5046629;28;20423;-69
2022/05/18 11:08:46;;;;;;;2.67;1.10;;;25.70;49.00;;;;;;5075583;28;20036;-69
2022/05/18 11:11:57;;;;;;;2.95;1.30;;;25.60;50.00;;;;;;5076104;28;20078;-69
2022/05/18 11:14:31;;;;;;;4.97;1.40;;;25.70;51.40;;;;;;5062459;28;20435;-69
2022/05/18 11:17:00;;;;;;;3.67;1.10;;;25.80;49.60;;;;;;5075516;28;20078;-68
2022/05/18 11:19:42;;;;;;;3.17;1.40;;;25.90;52.50;;;;;;5075354;28;20430;-69
2022/05/18 11:22:35;;;;;;;3.35;1.25;;;26.00;49.60;;;;;;5075161;28;20017;-69
2022/05/18 11:25:25;;;;;;;3.97;1.20;;;25.90;49.80;;;;;;5075210;28;20023;-69
2022/05/18 11:28:00;;;;;;;2.13;1.30;;;26.00;50.50;;;;;;5075069;28;20029;-69
2022/05/18 11:30:55;;;;;;;2.33;1.33;;;26.20;50.20;;;;;;5057304;28;20037;-68
2022/05/18 11:33:24;;;;;;;3.95;1.50;;;26.30;50.30;;;;;;5074871;28;20028;-68
2022/05/18 11:36:15;;;;;;;2.08;1.00;;;26.30;50.30;;;;;;5076119;28;20025;-71
2022/05/18 11:39:07;;;;;;;4.32;1.20;;;26.30;49.20;;;;;;5075298;28;20038;-69
2022/05/18 11:41:52;;;;;;;2.15;1.20;;;26.40;49.40;;;;;;5074567;28;20036;-69
2022/05/18 11:44:40;;;;;;;2.90;0.90;;;26.50;50.90;;;;;;5075172;28;20025;-69
2022/05/18 11:47:12;;;;;;;5.85;1.25;;;26.60;49.60;;;;;;5075186;28;20025;-69
2022/05/18 11:49:40;;;;;;;;;;;26.70;50.10;;;;;;5074313;28;19911;-69
2022/05/18 11:52:18;;;;;;;;;;;26.80;48.70;;;;;;5075254;28;19943;-69
2022/05/18 11:55:02;;;;;;;;;;;26.70;47.80;;;;;;5074664;28;19908;-70
2022/05/18 11:57:48;;;;;;;2.70;1.30;;;26.60;48.80;;;;;;5074669;28;19911;-70
2022/05/18 12:03:30;;;;;;;3.33;1.27;;;26.20;51.70;;;;;;5074497;28;20021;-68
2022/05/18 12:06:01;;;;;;;;;;;26.20;52.30;;;;;;5074847;28;20068;-68
2022/05/18 12:08:40;;;;;;;;;;;26.20;52.10;;;;;;5073352;28;19958;-70
2022/05/18 12:11:26;;;;;;;;;;;26.00;53.30;;;;;;5073672;28;19957;-68
2022/05/18 12:14:07;;;;;;;;;;;25.90;52.20;;;;;;5066492;28;19904;-68
2022/05/18 12:16:39;;;;;;;;;;;25.70;53.80;;;;;;5074715;28;19911;-68
2022/05/18 12:19:23;;;;;;;;;;;25.50;53.70;;;;;;5073742;28;19912;-68
2022/05/18 12:21:54;;;;;;;;;;;25.40;52.80;;;;;;5074465;28;19904;-68
2022/05/18 12:24:20;;;;;;;;;;;25.20;55.30;;;;;;5074772;28;20373;-68
2022/05/18 12:26:46;;;;;;;6.50;2.60;;;25.10;56.00;;;;;;5074380;28;20310;-68
2022/05/18 12:29:16;;;;;;;;;;;25.10;56.00;;;;;;5072209;28;20035;-68
2022/05/18 12:31:42;;;;;;;;;;;24.90;57.00;;;;;;5073820;28;20048;-68
2022/05/18 12:34:14;;;;;;;;;;;25.00;55.60;;;;;;5071631;28;20037;-68
2022/05/18 12:36:51;;;;;;;;;;;25.20;56.40;;;;;;5087842;28;19904;-68
2022/05/18 12:39:18;;;;;;;;;;;25.60;55.70;;;;;;5074025;28;19930;-68
2022/05/18 12:41:46;;;;;;;;;;;25.90;53.50;;;;;;5074035;28;24068;-68
2022/05/18 12:44:25;;;;;;;;;;;26.10;53.00;;;;;;5074404;28;19908;-69
2022/05/18 12:46:54;;;;;;;;;;;26.30;50.50;;;;;;5073749;28;19912;-68
2022/05/18 12:49:29;;;;;;;;;;;26.50;52.70;;;;;;5073869;28;19904;-68
2022/05/18 12:52:13;;;;;;;;;;;26.60;52.80;;;;;;5074141;28;20375;-69
2022/05/18 12:54:43;;;;;;;;;;;26.40;54.70;;;;;;5073069;28;19947;-68
2022/05/18 12:57:15;;;;;;;;;;;26.10;55.60;;;;;;5073367;28;19927;-68
2022/05/18 12:59:55;;;;;;;;;;;26.00;55.40;;;;;;5072529;28;19995;-68
2022/05/18 13:02:39;;;;;;;;;;;25.90;56.20;;;;;;5055187;28;19904;-68
2022/05/18 13:05:31;;;;;;;;;;;25.70;57.20;;;;;;5072640;28;19909;-69
2022/05/18 13:08:03;;;;;;;;;;;25.50;56.80;;;;;;5038497;28;20347;-68
2022/05/18 13:10:33;;;;;;;;;;;25.60;58.10;;;;;;5087183;28;20042;-69
2022/05/18 13:13:00;;;;;;;;;;;25.80;58.50;;;;;;5072602;28;19911;-67
2022/05/18 13:15:48;;;;;;;;;;;25.80;58.30;;;;;;5072068;28;19931;-69
2022/05/18 13:18:16;;;;;;;;;;;25.80;57.00;;;;;;5073103;28;20352;-68
2022/05/18 13:20:48;;;;;;;;;;;25.80;57.60;;;;;;5072838;28;19951;-69
2022/05/18 13:23:28;;;;;;;;;;;25.80;57.80;;;;;;5072596;28;19904;-69
2022/05/18 13:26:10;;;;;;;;;;;25.90;56.90;;;;;;5072203;28;19929;-68
2022/05/18 13:28:36;;;;;;;;;;;26.00;56.80;;;;;;5073131;28;19959;-68
2022/05/18 13:31:02;;;;;;;;;;;26.00;54.90;;;;;;5073275;28;19959;-67
2022/05/18 13:33:34;;;;;;;;;;;25.90;53.30;;;;;;5086536;28;20004;-68
2022/05/18 13:36:00;;;;;;;;;;;25.70;54.70;;;;;;5071851;28;19911;-69